createdAt,value
2018-12-19T00:01:39.819Z,13.43
2018-12-19T00:04:12.715Z,10.90
2018-12-19T00:06:52.400Z,9.13
2018-12-19T00:09:27.197Z,5.87
2018-12-19T00:12:04.639Z,10.50
2018-12-19T00:14:43.651Z,7.90
2018-12-19T00:17:20.169Z,9.67
2018-12-19T00:20:02.101Z,11.07
2018-12-19T00:22:40.636Z,9.23
2018-12-19T00:25:19.990Z,9.40
2018-12-19T00:28:00.639Z,11.70
2018-12-19T00:30:39.795Z,11.53
2018-12-19T00:33:16.291Z,9.80
2018-12-19T00:35:52.627Z,9.90
2018-12-19T00:38:29.708Z,8.97
2018-12-19T00:41:08.913Z,12.67
2018-12-19T00:43:44.191Z,10.27
2018-12-19T00:46:23.471Z,9.93
2018-12-19T00:49:02.640Z,11.83
2018-12-19T00:51:41.717Z,11.57
2018-12-19T00:54:18.880Z,10.57
2018-12-19T00:56:48.416Z,8.63
2018-12-19T00:59:23.511Z,13.07
2018-12-19T01:02:03.280Z,9.97
2018-12-19T01:04:40.253Z,7.20
2018-12-19T01:07:17.688Z,7.37
2018-12-19T01:09:55.027Z,12.77
2018-12-19T01:12:32.512Z,10.47
2018-12-19T01:15:14.432Z,12.67
2018-12-19T01:17:51.404Z,11.77
2018-12-19T01:20:28.773Z,10.17
2018-12-19T01:23:05.876Z,7.67
2018-12-19T01:25:40.515Z,8.20
2018-12-19T01:28:19.836Z,11.13
2018-12-19T01:30:54.886Z,10.50
2018-12-19T01:33:32.373Z,10.23
2018-12-19T01:36:11.683Z,10.83
2018-12-19T01:38:46.800Z,10.03
2018-12-19T01:41:23.859Z,10.30
2018-12-19T01:44:01.278Z,10.30
2018-12-19T01:46:40.515Z,9.17
2018-12-19T01:49:17.759Z,10.50
2018-12-19T01:52:03.336Z,9.43
2018-12-19T01:54:38.127Z,8.93
2018-12-19T01:57:15.628Z,10.10
2018-12-19T01:59:50.868Z,8.67
2018-12-19T02:02:28.051Z,9.87
2018-12-19T02:05:14.410Z,9.43
2018-12-19T02:07:56.426Z,8.20
2018-12-19T02:10:33.385Z,9.07
2018-12-19T02:13:10.462Z,9.50
2018-12-19T02:15:45.797Z,11.17
2018-12-19T02:18:20.920Z,8.63
2018-12-19T02:23:50.168Z,10.43
2018-12-19T02:26:25.556Z,9.57
2018-12-19T02:29:00.461Z,10.07
2018-12-19T02:31:35.431Z,10.27
2018-12-19T02:34:12.648Z,9.97
2018-12-19T02:36:48.532Z,10.70
2018-12-19T02:39:25.493Z,8.50
2018-12-19T02:42:04.762Z,11.03
2018-12-19T02:44:43.858Z,11.97
2018-12-19T02:47:23.147Z,9.20
2018-12-19T02:50:00.369Z,10.63
2018-12-19T02:52:37.566Z,10.97
2018-12-19T02:55:13.617Z,9.80
2018-12-19T02:57:48.933Z,11.23
2018-12-19T03:00:25.143Z,9.97
2018-12-19T03:03:02.050Z,10.17
2018-12-19T03:05:39.346Z,10.03
2018-12-19T03:08:16.758Z,10.73
2018-12-19T03:10:53.274Z,9.63
2018-12-19T03:13:30.734Z,10.37
2018-12-19T03:16:10.141Z,11.13
2018-12-19T03:18:49.535Z,10.97
2018-12-19T03:21:27.215Z,8.40
2018-12-19T03:24:06.194Z,10.73
2018-12-19T03:26:43.378Z,11.40
2018-12-19T03:29:20.474Z,8.13
2018-12-19T03:31:59.129Z,9.83
2018-12-19T03:34:34.193Z,9.90
2018-12-19T03:37:11.315Z,13.10
2018-12-19T03:39:50.527Z,9.37
2018-12-19T03:42:27.491Z,7.63
2018-12-19T03:45:03.249Z,11.43
2018-12-19T03:47:40.073Z,9.60
2018-12-19T03:50:13.657Z,10.07
2018-12-19T03:52:50.956Z,11.33
2018-12-19T03:55:30.106Z,11.60
2018-12-19T03:58:09.134Z,10.83
2018-12-19T04:00:48.400Z,10.37
2018-12-19T04:03:26.217Z,10.30
2018-12-19T04:06:01.201Z,11.53
2018-12-19T04:08:40.334Z,12.13
2018-12-19T04:11:15.613Z,8.50
2018-12-19T04:13:48.936Z,10.90
2018-12-19T04:16:26.453Z,9.47
2018-12-19T04:18:59.478Z,10.13
2018-12-19T04:21:37.250Z,11.43
2018-12-19T04:24:14.603Z,10.73
2018-12-19T04:26:47.710Z,10.63
2018-12-19T04:29:24.423Z,11.77
2018-12-19T04:31:59.652Z,9.37
2018-12-19T04:34:39.716Z,10.73
2018-12-19T04:37:16.671Z,9.30
2018-12-19T04:39:53.186Z,10.77
2018-12-19T04:42:31.814Z,9.93
2018-12-19T04:45:07.589Z,10.23
2018-12-19T04:47:44.392Z,11.57
2018-12-19T04:50:19.505Z,9.20
2018-12-19T04:52:56.677Z,8.10
2018-12-19T04:55:34.126Z,8.67
2018-12-19T04:58:04.605Z,11.70
2018-12-19T05:00:39.426Z,13.43
2018-12-19T05:03:18.677Z,12.10
2018-12-19T05:05:53.965Z,11.60
2018-12-19T05:08:29.334Z,11.97
2018-12-19T05:11:08.611Z,9.80
2018-12-19T05:13:47.846Z,11.10
2018-12-19T05:19:18.970Z,9.43
2018-12-19T05:21:54.163Z,9.70
2018-12-19T05:24:33.262Z,9.33
2018-12-19T05:29:41.783Z,11.47
2018-12-19T05:32:21.137Z,10.03
2018-12-19T05:35:00.261Z,9.57
2018-12-19T05:37:29.422Z,10.60
2018-12-19T05:40:09.209Z,9.83
2018-12-19T05:42:44.104Z,8.53
2018-12-19T05:45:19.635Z,10.30
2018-12-19T05:47:56.930Z,9.47
2018-12-19T05:50:38.503Z,9.20
2018-12-19T05:53:13.529Z,10.37
2018-12-19T05:55:48.733Z,9.87
2018-12-19T05:58:24.178Z,7.73
2018-12-19T06:01:03.211Z,11.63
2018-12-19T06:03:44.267Z,9.87
2018-12-19T06:06:23.431Z,9.90
2018-12-19T06:09:04.935Z,8.53
2018-12-19T06:11:39.741Z,9.93
2018-12-19T06:14:18.922Z,10.90
2018-12-19T06:16:54.172Z,8.70
2018-12-19T06:19:29.433Z,8.40
2018-12-19T06:22:08.600Z,10.13
2018-12-19T06:24:50.207Z,10.83
2018-12-19T06:27:24.987Z,10.97
2018-12-19T06:29:57.794Z,8.03
2018-12-19T06:32:32.435Z,8.47
2018-12-19T06:35:12.704Z,6.57
2018-12-19T06:38:38.404Z,8.50
2018-12-19T06:41:17.765Z,9.23
2018-12-19T06:46:57.013Z,9.83
2018-12-19T06:49:32.188Z,7.10
2018-12-19T06:52:08.497Z,9.40
2018-12-19T06:54:45.918Z,9.20
2018-12-19T06:57:25.125Z,8.83
2018-12-19T07:00:06.881Z,9.13
2018-12-19T07:02:46.862Z,8.20
2018-12-19T07:05:25.988Z,8.63
2018-12-19T07:08:05.398Z,9.53
2018-12-19T07:10:47.167Z,8.97
2018-12-19T07:13:21.886Z,6.30
2018-12-19T07:15:56.871Z,11.17
2018-12-19T07:18:32.398Z,8.67
2018-12-19T07:21:07.760Z,10.13
2018-12-19T07:23:42.747Z,7.80
2018-12-19T07:26:18.315Z,9.17
2018-12-19T07:28:57.319Z,10.17
2018-12-19T07:31:36.777Z,9.70
2018-12-19T07:34:18.609Z,9.57
2018-12-19T07:36:54.272Z,10.43
2018-12-19T07:39:29.333Z,8.03
2018-12-19T07:42:08.618Z,7.77
2018-12-19T07:44:47.637Z,9.03
2018-12-19T07:47:23.065Z,9.67
2018-12-19T07:49:58.143Z,9.43
2018-12-19T07:52:33.243Z,10.13
2018-12-19T07:55:09.097Z,9.27
2018-12-19T07:57:48.229Z,8.77
2018-12-19T08:00:27.648Z,10.80
2018-12-19T08:03:03.051Z,9.13
2018-12-19T08:05:38.436Z,10.57
2018-12-19T08:08:13.574Z,9.60
2018-12-19T08:10:52.210Z,8.83
2018-12-19T08:13:25.662Z,9.63
2018-12-19T08:16:00.951Z,7.87
2018-12-19T08:18:35.937Z,9.60
2018-12-19T08:21:12.381Z,9.77
2018-12-19T08:23:47.547Z,8.53
2018-12-19T08:26:22.662Z,8.77
2018-12-19T08:28:58.330Z,8.33
2018-12-19T08:31:33.827Z,9.00
2018-12-19T08:34:09.420Z,8.47
2018-12-19T08:36:45.046Z,9.43
2018-12-19T08:39:27.482Z,8.47
2018-12-19T08:42:03.102Z,6.83
2018-12-19T08:44:38.244Z,7.50
2018-12-19T08:47:19.547Z,8.20
2018-12-19T08:49:54.931Z,7.93
2018-12-19T08:52:36.694Z,7.83
2018-12-19T08:55:14.420Z,7.83
2018-12-19T08:57:49.648Z,8.13
2018-12-19T09:00:24.690Z,9.63
2018-12-19T09:02:57.236Z,8.57
2018-12-19T09:05:33.164Z,9.07
2018-12-19T09:08:08.129Z,10.70
2018-12-19T09:10:47.562Z,8.97
2018-12-19T09:13:26.220Z,7.63
2018-12-19T09:16:05.674Z,9.33
2018-12-19T09:18:44.919Z,9.57
2018-12-19T09:21:20.227Z,7.90
2018-12-19T09:23:55.531Z,9.80
2018-12-19T09:26:35.443Z,8.63
2018-12-19T09:29:20.750Z,7.77
2018-12-19T09:31:59.366Z,7.77
2018-12-19T09:34:40.901Z,8.07
2018-12-19T09:37:19.574Z,8.17
2018-12-19T09:42:54.631Z,7.50
2018-12-19T09:45:31.636Z,7.87
2018-12-19T09:48:11.207Z,7.73
2018-12-19T09:50:50.011Z,8.57
2018-12-19T09:53:27.685Z,8.40
2018-12-19T09:56:04.797Z,8.13
2018-12-19T09:58:41.949Z,7.93
2018-12-19T10:01:19.117Z,7.90
2018-12-19T10:03:58.844Z,8.13
2018-12-19T10:06:34.264Z,7.93
2018-12-19T10:09:14.764Z,7.53
2018-12-19T10:11:46.905Z,8.13
2018-12-19T10:14:24.233Z,7.83
2018-12-19T10:16:59.357Z,8.10
2018-12-19T10:19:34.593Z,9.10
2018-12-19T10:22:14.002Z,7.93
2018-12-19T10:25:25.493Z,8.67
2018-12-19T10:28:04.132Z,8.33
2018-12-19T10:30:46.293Z,9.23
2018-12-19T10:33:22.922Z,8.97
2018-12-19T10:36:00.220Z,10.03
2018-12-19T10:38:39.267Z,7.60
2018-12-19T10:41:14.812Z,8.50
2018-12-19T10:43:54.162Z,8.83
2018-12-19T10:46:29.357Z,9.80
2018-12-19T10:49:08.599Z,9.67
2018-12-19T10:51:43.781Z,9.23
2018-12-19T10:54:18.925Z,8.23
2018-12-19T10:56:58.141Z,8.90
2018-12-19T10:59:37.405Z,13.27
2018-12-19T11:02:16.599Z,11.47
2018-12-19T11:04:45.810Z,10.43
2018-12-19T11:07:23.345Z,10.30
2018-12-19T11:09:58.651Z,10.53
2018-12-19T11:12:35.916Z,10.70
2018-12-19T11:15:13.054Z,8.93
2018-12-19T11:17:52.232Z,10.17
2018-12-19T11:20:27.359Z,9.23
2018-12-19T11:23:05.102Z,8.63
2018-12-19T11:25:40.548Z,8.80
2018-12-19T11:28:21.472Z,9.27
2018-12-19T11:30:56.558Z,10.00
2018-12-19T11:33:33.070Z,8.23
2018-12-19T11:36:11.922Z,8.03
2018-12-19T11:38:47.307Z,7.73
2018-12-19T11:41:26.115Z,8.37
2018-12-19T11:44:03.843Z,8.30
2018-12-19T11:46:39.698Z,8.90
2018-12-19T11:49:18.905Z,8.87
2018-12-19T11:51:53.977Z,8.33
2018-12-19T11:54:31.049Z,8.60
2018-12-19T11:57:08.776Z,8.80
2018-12-19T11:59:44.288Z,8.23
2018-12-19T12:02:21.787Z,7.80
2018-12-19T12:04:50.922Z,8.93
2018-12-19T12:07:30.538Z,8.87
2018-12-19T12:10:09.339Z,9.10
2018-12-19T12:12:46.342Z,9.03
2018-12-19T12:15:23.735Z,9.13
2018-12-19T12:17:58.822Z,8.60
2018-12-19T12:20:33.842Z,8.70
2018-12-19T12:23:12.971Z,9.10
2018-12-19T12:25:48.032Z,8.97
2018-12-19T12:28:23.533Z,9.33
2018-12-19T12:31:01.423Z,8.73
2018-12-19T12:33:40.458Z,10.33
2018-12-19T12:36:18.237Z,9.60
2018-12-19T12:38:57.150Z,9.33
2018-12-19T12:41:32.406Z,10.87
2018-12-19T12:44:09.830Z,8.87
2018-12-19T12:46:44.796Z,9.47
2018-12-19T12:49:20.125Z,9.27
2018-12-19T12:52:03.940Z,9.07
2018-12-19T12:54:40.571Z,9.03
2018-12-19T12:57:23.274Z,9.10
2018-12-19T13:00:00.792Z,9.73
2018-12-19T13:02:35.989Z,11.43
2018-12-19T13:05:15.580Z,10.47
2018-12-19T13:07:54.379Z,9.63
2018-12-19T13:10:36.291Z,9.07
2018-12-19T13:13:14.443Z,9.77
2018-12-19T13:15:53.604Z,9.70
2018-12-19T13:18:33.719Z,9.20
2018-12-19T13:21:08.982Z,8.40
2018-12-19T13:23:44.145Z,8.63
2018-12-19T13:26:23.311Z,8.57
2018-12-19T13:28:58.210Z,9.67
2018-12-19T13:31:33.331Z,8.40
2018-12-19T13:34:12.463Z,9.67
2018-12-19T13:36:51.667Z,8.03
2018-12-19T13:39:30.709Z,8.73
2018-12-19T13:42:05.999Z,8.33
2018-12-19T13:44:41.625Z,7.73
2018-12-19T13:47:16.952Z,8.03
2018-12-19T13:49:49.854Z,7.50
2018-12-19T13:52:25.001Z,7.20
2018-12-19T13:55:04.509Z,7.97
2018-12-19T13:57:39.327Z,7.53
2018-12-19T14:00:15.136Z,8.10
2018-12-19T14:02:57.817Z,6.50
2018-12-19T14:05:32.805Z,8.00
2018-12-19T14:08:12.346Z,7.20
2018-12-19T14:10:48.397Z,6.90
2018-12-19T14:13:23.559Z,6.80
2018-12-19T14:16:02.837Z,8.37
2018-12-19T14:18:38.227Z,7.97
2018-12-19T14:21:13.410Z,7.20
2018-12-19T14:23:52.526Z,8.13
2018-12-19T14:26:28.239Z,7.50
2018-12-19T14:29:05.406Z,7.53
2018-12-19T14:31:44.356Z,8.00
2018-12-19T14:34:23.240Z,7.13
2018-12-19T14:36:52.808Z,9.93
2018-12-19T14:39:35.939Z,7.63
2018-12-19T14:42:05.150Z,8.57
2018-12-19T14:44:41.380Z,13.93
2018-12-19T14:47:18.390Z,16.03
2018-12-19T14:49:57.762Z,8.63
2018-12-19T14:52:35.173Z,7.90
2018-12-19T14:55:14.557Z,9.53
2018-12-19T14:57:49.846Z,8.53
2018-12-19T15:00:26.648Z,8.10
2018-12-19T15:03:05.992Z,9.57
2018-12-19T15:05:45.057Z,9.70
2018-12-19T15:08:20.381Z,9.50
2018-12-19T15:10:56.350Z,11.07
2018-12-19T15:13:35.350Z,9.43
2018-12-19T15:16:16.453Z,9.73
2018-12-19T15:18:52.325Z,7.37
2018-12-19T15:21:28.874Z,8.27
2018-12-19T15:24:08.162Z,8.47
2018-12-19T15:26:47.342Z,8.63
2018-12-19T15:29:26.614Z,7.30
2018-12-19T15:32:06.975Z,6.10
2018-12-19T15:34:42.230Z,6.53
2018-12-19T15:37:21.340Z,7.27
2018-12-19T15:39:58.296Z,6.20
2018-12-19T15:42:37.382Z,7.10
2018-12-19T15:45:12.690Z,6.73
2018-12-19T15:47:52.184Z,6.37
2018-12-19T15:50:29.447Z,7.33
2018-12-19T15:53:04.606Z,7.37
2018-12-19T15:55:41.463Z,8.23
2018-12-19T15:58:16.550Z,10.13
2018-12-19T16:00:52.162Z,26.57
2018-12-19T16:03:27.096Z,28.20
2018-12-19T16:06:03.308Z,10.40
2018-12-19T16:08:38.257Z,7.90
2018-12-19T16:11:14.683Z,12.13
2018-12-19T16:13:50.127Z,9.73
2018-12-19T16:16:26.799Z,8.60
2018-12-19T16:19:02.162Z,9.23
2018-12-19T16:21:41.118Z,7.90
2018-12-19T16:24:18.403Z,9.33
2018-12-19T16:26:56.313Z,14.10
2018-12-19T16:29:31.656Z,12.50
2018-12-19T16:32:10.253Z,9.97
2018-12-19T16:34:48.677Z,10.17
2018-12-19T16:37:23.977Z,10.07
2018-12-19T16:39:59.132Z,9.33
2018-12-19T16:42:36.100Z,9.27
2018-12-19T16:45:11.202Z,8.23
2018-12-19T16:47:46.602Z,9.97
2018-12-19T16:50:25.479Z,8.30
2018-12-19T16:53:02.723Z,8.03
2018-12-19T16:55:42.281Z,8.07
2018-12-19T16:58:21.085Z,8.80
2018-12-19T17:00:56.394Z,7.10
2018-12-19T17:03:32.275Z,6.47
2018-12-19T17:06:09.463Z,8.20
2018-12-19T17:08:48.027Z,7.30
2018-12-19T17:11:23.713Z,9.03
2018-12-19T17:14:01.317Z,9.17
2018-12-19T17:16:36.434Z,8.30
2018-12-19T17:19:13.602Z,8.50
2018-12-19T17:21:50.829Z,8.47
2018-12-19T17:24:45.837Z,7.37
2018-12-19T17:27:24.865Z,7.77
2018-12-19T17:30:04.325Z,7.67
2018-12-19T17:32:40.927Z,7.40
2018-12-19T17:35:17.940Z,6.80
2018-12-19T17:37:53.208Z,6.87
2018-12-19T17:40:29.186Z,8.47
2018-12-19T17:43:06.826Z,7.33
2018-12-19T17:45:45.821Z,6.60
2018-12-19T17:48:23.203Z,7.10
2018-12-19T17:51:01.975Z,7.60
2018-12-19T17:53:39.218Z,7.07
2018-12-19T17:56:24.583Z,8.57
2018-12-19T17:59:00.171Z,6.63
2018-12-19T18:01:40.534Z,6.87
2018-12-19T18:04:20.470Z,8.27
2018-12-19T18:06:59.452Z,8.43
2018-12-19T18:09:41.112Z,7.90
2018-12-19T18:12:15.969Z,9.00
2018-12-19T18:14:50.758Z,7.73
2018-12-19T18:17:28.204Z,9.30
2018-12-19T18:20:03.879Z,7.27
2018-12-19T18:22:40.458Z,8.23
2018-12-19T18:25:26.114Z,7.43
2018-12-19T18:28:00.794Z,7.57
2018-12-19T18:33:34.298Z,9.97
2018-12-19T18:36:11.057Z,10.07
2018-12-19T18:38:47.877Z,7.53
2018-12-19T18:41:29.328Z,7.97
2018-12-19T18:44:06.505Z,7.63
2018-12-19T18:46:42.039Z,6.47
2018-12-19T18:49:19.662Z,6.80
2018-12-19T18:51:58.307Z,6.77
2018-12-19T18:54:37.786Z,6.60
2018-12-19T18:57:15.538Z,6.20
2018-12-19T18:59:47.907Z,6.23
2018-12-19T19:02:25.642Z,6.30
2018-12-19T19:07:36.188Z,6.17
2018-12-19T19:10:13.270Z,6.97
2018-12-19T19:12:52.690Z,6.67
2018-12-19T19:15:27.757Z,5.93
2018-12-19T19:18:06.806Z,5.57
2018-12-19T19:20:46.164Z,5.97
2018-12-19T19:23:19.894Z,6.37
2018-12-19T19:25:59.004Z,4.07
2018-12-19T19:28:36.414Z,6.20
2018-12-19T19:31:11.686Z,4.43
2018-12-19T19:33:55.323Z,6.17
2018-12-19T19:36:30.522Z,7.13
2018-12-19T19:39:09.494Z,5.87
2018-12-19T19:41:45.030Z,6.10
2018-12-19T19:44:29.442Z,6.40
2018-12-19T19:47:04.741Z,6.60
2018-12-19T19:49:39.538Z,6.33
2018-12-19T19:52:14.908Z,6.70
2018-12-19T19:55:01.762Z,7.37
2018-12-19T19:57:40.825Z,6.47
2018-12-19T20:00:20.718Z,8.73
2018-12-19T20:02:56.751Z,7.53
2018-12-19T20:05:36.544Z,6.77
2018-12-19T20:08:13.597Z,5.40
2018-12-19T20:10:53.010Z,8.27
2018-12-19T20:13:33.477Z,6.70
2018-12-19T20:16:09.703Z,6.53
2018-12-19T20:18:47.084Z,6.60
2018-12-19T20:21:23.190Z,7.50
2018-12-19T20:23:58.214Z,6.87
2018-12-19T20:26:41.087Z,6.17
2018-12-19T20:29:16.009Z,6.63
2018-12-19T20:31:51.387Z,6.63
2018-12-19T20:34:31.184Z,7.37
2018-12-19T20:37:06.151Z,9.63
2018-12-19T20:39:45.598Z,9.03
2018-12-19T20:42:20.881Z,9.60
2018-12-19T20:45:00.804Z,9.57
2018-12-19T20:47:39.000Z,8.37
2018-12-19T20:50:14.749Z,8.63
2018-12-19T20:52:49.889Z,10.90
2018-12-19T20:55:29.766Z,10.63
2018-12-19T20:58:06.764Z,12.90
2018-12-19T21:00:46.500Z,9.23
2018-12-19T21:03:26.318Z,7.27
2018-12-19T21:06:03.655Z,7.50
2018-12-19T21:08:38.730Z,5.50
2018-12-19T21:11:15.825Z,6.00
2018-12-19T21:13:51.946Z,6.90
2018-12-19T21:16:36.591Z,8.27
2018-12-19T21:19:15.560Z,7.77
2018-12-19T21:21:54.276Z,6.87
2018-12-19T21:24:29.470Z,7.30
2018-12-19T21:27:04.763Z,6.37
2018-12-19T21:29:45.263Z,6.97
2018-12-19T21:32:20.289Z,7.33
2018-12-19T21:34:55.427Z,7.37
2018-12-19T21:37:34.839Z,6.73
2018-12-19T21:40:13.769Z,6.43
2018-12-19T21:42:49.372Z,6.37
2018-12-19T21:45:29.002Z,7.20
2018-12-19T21:48:07.990Z,7.07
2018-12-19T21:50:47.173Z,8.67
2018-12-19T21:53:22.598Z,7.13
2018-12-19T21:55:57.882Z,7.43
2018-12-19T21:58:33.566Z,7.70
2018-12-19T22:01:08.527Z,7.80
2018-12-19T22:03:47.957Z,7.57
2018-12-19T22:06:27.007Z,7.60
2018-12-19T22:09:02.129Z,7.70
2018-12-19T22:11:32.769Z,7.80
2018-12-19T22:14:12.278Z,6.80
2018-12-19T22:16:53.009Z,7.00
2018-12-19T22:19:27.818Z,7.07
2018-12-19T22:22:02.950Z,8.07
2018-12-19T22:24:42.374Z,6.53
2018-12-19T22:27:17.605Z,7.33
2018-12-19T22:29:55.049Z,7.73
2018-12-19T22:32:30.399Z,7.03
2018-12-19T22:35:09.707Z,6.30
2018-12-19T22:37:45.170Z,6.77
2018-12-19T22:40:22.513Z,6.83
2018-12-19T22:46:09.838Z,7.27
2018-12-19T22:48:44.958Z,5.47
2018-12-19T22:51:20.250Z,7.90
2018-12-19T22:53:59.391Z,7.17
2018-12-19T22:56:36.893Z,7.80
2018-12-19T22:59:15.956Z,8.67
2018-12-19T23:02:57.030Z,6.97
2018-12-19T23:05:39.585Z,6.50
2018-12-19T23:08:15.082Z,7.67
2018-12-19T23:10:50.257Z,8.47
2018-12-19T23:13:29.432Z,7.47
2018-12-19T23:16:10.251Z,6.57
2018-12-19T23:18:50.537Z,7.87
2018-12-19T23:24:33.242Z,6.60
2018-12-19T23:27:09.602Z,8.03
2018-12-19T23:29:50.605Z,8.77
2018-12-19T23:32:29.780Z,8.63
2018-12-19T23:35:07.590Z,7.43
2018-12-19T23:37:47.051Z,7.57
2018-12-19T23:40:23.425Z,6.87
2018-12-19T23:42:59.080Z,7.00
2018-12-19T23:45:36.639Z,8.03
2018-12-19T23:48:15.793Z,7.43
2018-12-19T23:56:57.824Z,8.33
2018-12-19T23:59:37.090Z,6.83
